Pagrindinis puslapis
METAR-TAF:

METAR-TAF

Oro uostai :

Mosjøen, Norvegija

platuma: 65-48N, ilguma: 013-08E, Aukštis: 70 m

Dabartinis oras

Ataskaita buvo paskelbta 20 minutes, ne 08:50 UTC
Vėjas 2 kt nuo kintamojo kryptimis
Temperatūra -15°C
Drėgmė 92%
Slėgis 1019 hPa
Matomumas 10 km arba daugiau

METAR: ENMS 100850Z AUTO VRB02KT 9999 NCD M15/M16 Q1019 RMK WIND 412FT 00000KT

Laikas: 10:10 (09:10 UTC)

Prognozė

Ataskaita buvo paskelbta 1 valandą ir 10 minutes, ne 08:00 UTC
Prognozė galioja nuo 10 metu 09 UTC su 10 metu 16 UTC
Vėjas 3 kt iš Pietų/Pietryčių
Matomumas 10 km arba daugiau
nėra debesų žemiau 1500 m ir nėra kamuolinių lietaus debesų

TAF: ENMS 100800Z 1009/1016 16003KT CAVOK

Orai ataskaitas ir orų prognozės (METAR, TAF).

turimą stotys yra geltonos ir raudonos taškus žemėlapyje.

Perkelti pele per norėdami pamatyti stoties vardą.

Tada spustelėkite, norėdami matyti oro stebėjimo ir prognozės.

Norėdami pakeisti žemėlapį: spustelėkite ant žalios mygtukų su juodo kryžiaus žemyn,; žalią mygtuką su brūkšneliu, jei norite nutolinti; arba žalių rodyklių gretimoms žemėlapius.


METAR-TAF: